VOI744 MMHO-MMMY
Flight info
| Callsign | VOI744 |
|---|---|
| Flight time | 1h 38m |
| Altitude | 37000 |
| Route | IGTAN1D IGTAN DCT SUTIL DCT ETLEP DCT SLW SLW1B |
| Aircraft | A320/M-SDE3FGHIRWY/LB1 |
Departure
| Time | 2026-04-22 03:47 |
|---|---|
| Airport | General Ignacio L. Pesqueira International Airport (MMHO) |
Arrival
| Time | 2026-04-22 05:26 |
|---|---|
| Airport | Monterrey International Airport (MMMY) |
| Time | Latitude | Longitude | Altitude | Speed | Heading |
|---|---|---|---|---|---|
| 2026-04-22 03:26 | 29.09108 | -111.05160 | 626 ft | 0 kts | 153° |
| 2026-04-22 03:36 | 29.09110 | -111.05161 | 626 ft | 3 kts | 153° |
| 2026-04-22 03:36 | 29.09126 | -111.05170 | 636 ft | 3 kts | 153° |
| 2026-04-22 03:36 | 29.09142 | -111.05179 | 634 ft | 3 kts | 153° |
| 2026-04-22 03:36 | 29.09157 | -111.05188 | 634 ft | 3 kts | 153° |
| 2026-04-22 03:37 | 29.09172 | -111.05197 | 634 ft | 2 kts | 113° |
| 2026-04-22 03:37 | 29.09175 | -111.05206 | 634 ft | 0 kts | 80° |
| 2026-04-22 03:39 | 29.09176 | -111.05202 | 625 ft | 2 kts | 79° |
| 2026-04-22 03:40 | 29.09182 | -111.05174 | 629 ft | 4 kts | 75° |
| 2026-04-22 03:40 | 29.09196 | -111.05138 | 634 ft | 6 kts | 59° |
| 2026-04-22 03:40 | 29.09221 | -111.05095 | 633 ft | 7 kts | 56° |
| 2026-04-22 03:40 | 29.09249 | -111.05043 | 634 ft | 8 kts | 60° |
| 2026-04-22 03:41 | 29.09279 | -111.04985 | 632 ft | 7 kts | 59° |
| 2026-04-22 03:41 | 29.09307 | -111.04933 | 638 ft | 8 kts | 58° |
| 2026-04-22 03:41 | 29.09351 | -111.04921 | 632 ft | 9 kts | 333° |
| 2026-04-22 03:41 | 29.09399 | -111.04979 | 635 ft | 7 kts | 310° |
| 2026-04-22 03:42 | 29.09445 | -111.05019 | 631 ft | 9 kts | 356° |
| 2026-04-22 03:42 | 29.09491 | -111.04966 | 632 ft | 10 kts | 58° |
| 2026-04-22 03:42 | 29.09532 | -111.04890 | 631 ft | 12 kts | 58° |
| 2026-04-22 03:42 | 29.09577 | -111.04796 | 630 ft | 15 kts | 58° |
| 2026-04-22 03:43 | 29.09637 | -111.04685 | 629 ft | 17 kts | 59° |
| 2026-04-22 03:43 | 29.09685 | -111.04595 | 632 ft | 13 kts | 58° |
| 2026-04-22 03:43 | 29.09720 | -111.04529 | 631 ft | 8 kts | 58° |
| 2026-04-22 03:43 | 29.09756 | -111.04461 | 635 ft | 12 kts | 60° |
| 2026-04-22 03:44 | 29.09799 | -111.04374 | 637 ft | 13 kts | 60° |
| 2026-04-22 03:44 | 29.09838 | -111.04286 | 636 ft | 9 kts | 67° |
| 2026-04-22 03:44 | 29.09845 | -111.04268 | 639 ft | 2 kts | 54° |
| 2026-04-22 03:44 | 29.09851 | -111.04274 | 638 ft | 1 kts | 311° |
| 2026-04-22 03:45 | 29.09841 | -111.04300 | 644 ft | 0 kts | 238° |
| 2026-04-22 03:45 | 29.09838 | -111.04305 | 636 ft | 0 kts | 238° |
| 2026-04-22 03:45 | 29.09838 | -111.04306 | 637 ft | 0 kts | 238° |
| 2026-04-22 03:45 | 29.09830 | -111.04321 | 639 ft | 5 kts | 238° |
| 2026-04-22 03:46 | 29.09813 | -111.04351 | 639 ft | 0 kts | 238° |
| 2026-04-22 03:46 | 29.09812 | -111.04353 | 639 ft | 2 kts | 238° |
| 2026-04-22 03:47 | 29.09707 | -111.04548 | 631 ft | 75 kts | 239° |
| 2026-04-22 03:47 | 29.09277 | -111.05351 | 632 ft | 156 kts | 238° |
| 2026-04-22 03:47 | 29.08623 | -111.06544 | 1006 ft | 191 kts | 238° |
| 2026-04-22 03:47 | 29.07929 | -111.07832 | 2068 ft | 187 kts | 240° |
| 2026-04-22 03:48 | 29.07241 | -111.09133 | 3045 ft | 201 kts | 238° |
| 2026-04-22 03:48 | 29.06488 | -111.10561 | 3667 ft | 222 kts | 238° |
| 2026-04-22 03:48 | 29.05646 | -111.12152 | 4111 ft | 246 kts | 238° |
| 2026-04-22 03:48 | 29.04721 | -111.13892 | 4715 ft | 263 kts | 237° |
| 2026-04-22 03:49 | 29.03620 | -111.15581 | 5548 ft | 268 kts | 221° |
| 2026-04-22 03:49 | 29.02063 | -111.16757 | 6420 ft | 270 kts | 201° |
| 2026-04-22 03:49 | 29.00226 | -111.17217 | 7250 ft | 273 kts | 180° |
| 2026-04-22 03:49 | 28.98341 | -111.16880 | 8081 ft | 278 kts | 160° |
| 2026-04-22 03:50 | 28.96669 | -111.15754 | 8925 ft | 283 kts | 139° |
| 2026-04-22 03:50 | 28.95463 | -111.13962 | 9767 ft | 290 kts | 117° |
| 2026-04-22 03:50 | 28.94931 | -111.11727 | 10512 ft | 298 kts | 94° |
| 2026-04-22 03:50 | 28.95220 | -111.09371 | 11209 ft | 306 kts | 70° |
| 2026-04-22 03:51 | 28.96293 | -111.07236 | 11746 ft | 320 kts | 55° |
| 2026-04-22 03:51 | 28.97645 | -111.05103 | 11997 ft | 342 kts | 53° |
| 2026-04-22 03:51 | 28.99083 | -111.02896 | 12543 ft | 351 kts | 53° |
| 2026-04-22 03:51 | 29.00561 | -111.00650 | 13212 ft | 356 kts | 53° |
| 2026-04-22 03:52 | 29.02036 | -110.98406 | 13876 ft | 361 kts | 52° |
| 2026-04-22 03:52 | 29.03549 | -110.96089 | 14469 ft | 365 kts | 53° |
| 2026-04-22 03:52 | 29.05071 | -110.93742 | 15093 ft | 369 kts | 53° |
| 2026-04-22 03:52 | 29.06609 | -110.91358 | 15690 ft | 374 kts | 53° |
| 2026-04-22 03:53 | 29.08158 | -110.88951 | 16292 ft | 378 kts | 53° |
| 2026-04-22 03:53 | 29.09649 | -110.86455 | 16897 ft | 383 kts | 56° |
| 2026-04-22 03:53 | 29.11077 | -110.83862 | 17505 ft | 387 kts | 58° |
| 2026-04-22 03:53 | 29.12466 | -110.81204 | 18115 ft | 391 kts | 59° |
| 2026-04-22 03:54 | 29.13851 | -110.78501 | 18679 ft | 396 kts | 59° |
| 2026-04-22 03:54 | 29.15163 | -110.75721 | 19224 ft | 400 kts | 66° |
| 2026-04-22 03:54 | 29.16055 | -110.72694 | 19789 ft | 403 kts | 77° |
| 2026-04-22 03:54 | 29.16464 | -110.69512 | 20355 ft | 407 kts | 88° |
| 2026-04-22 03:55 | 29.16359 | -110.66272 | 20907 ft | 409 kts | 97° |
| 2026-04-22 03:55 | 29.16055 | -110.63018 | 21455 ft | 413 kts | 97° |
| 2026-04-22 03:55 | 29.15748 | -110.59732 | 21993 ft | 417 kts | 97° |
| 2026-04-22 03:55 | 29.15441 | -110.56417 | 22529 ft | 421 kts | 97° |
| 2026-04-22 03:56 | 29.15136 | -110.53118 | 23070 ft | 425 kts | 97° |
| 2026-04-22 03:56 | 29.14822 | -110.49736 | 23593 ft | 429 kts | 97° |
| 2026-04-22 03:56 | 29.14504 | -110.46326 | 24047 ft | 433 kts | 96° |
| 2026-04-22 03:56 | 29.14184 | -110.42885 | 24491 ft | 437 kts | 96° |
| 2026-04-22 03:57 | 29.13862 | -110.39410 | 24925 ft | 441 kts | 96° |
| 2026-04-22 03:57 | 29.13536 | -110.35911 | 25352 ft | 444 kts | 96° |
| 2026-04-22 03:57 | 29.13207 | -110.32380 | 25773 ft | 448 kts | 96° |
| 2026-04-22 03:57 | 29.12873 | -110.28821 | 26191 ft | 452 kts | 96° |
| 2026-04-22 03:58 | 29.12534 | -110.25231 | 26600 ft | 456 kts | 96° |
| 2026-04-22 03:58 | 29.12190 | -110.21618 | 27014 ft | 459 kts | 97° |
| 2026-04-22 03:58 | 29.11663 | -110.18008 | 27409 ft | 462 kts | 105° |
| 2026-04-22 03:58 | 29.10672 | -110.14508 | 27791 ft | 464 kts | 113° |
| 2026-04-22 03:59 | 29.09490 | -110.11062 | 28180 ft | 467 kts | 113° |
| 2026-04-22 03:59 | 29.08298 | -110.07572 | 28538 ft | 471 kts | 113° |
| 2026-04-22 03:59 | 29.07106 | -110.04072 | 28911 ft | 475 kts | 113° |
| 2026-04-22 03:59 | 29.05905 | -110.00539 | 29280 ft | 478 kts | 113° |
| 2026-04-22 04:00 | 29.04695 | -109.96983 | 29654 ft | 482 kts | 113° |
| 2026-04-22 04:00 | 29.03487 | -109.93442 | 30017 ft | 485 kts | 113° |
| 2026-04-22 04:00 | 29.02247 | -109.89839 | 30345 ft | 489 kts | 113° |
| 2026-04-22 04:00 | 29.00961 | -109.86237 | 30672 ft | 491 kts | 114° |
| 2026-04-22 04:01 | 28.99633 | -109.82631 | 31003 ft | 493 kts | 115° |
| 2026-04-22 04:01 | 28.98282 | -109.79023 | 31330 ft | 496 kts | 115° |
| 2026-04-22 04:01 | 28.96918 | -109.75395 | 31660 ft | 498 kts | 115° |
| 2026-04-22 04:01 | 28.95556 | -109.71750 | 32090 ft | 497 kts | 115° |
| 2026-04-22 04:02 | 28.94210 | -109.68121 | 32569 ft | 496 kts | 115° |
| 2026-04-22 04:02 | 28.92872 | -109.64497 | 33036 ft | 494 kts | 115° |
| 2026-04-22 04:02 | 28.91539 | -109.60881 | 33458 ft | 495 kts | 115° |
| 2026-04-22 04:02 | 28.90212 | -109.57287 | 33886 ft | 495 kts | 115° |
| 2026-04-22 04:03 | 28.88862 | -109.53636 | 34312 ft | 494 kts | 115° |
| 2026-04-22 04:03 | 28.87533 | -109.50045 | 34718 ft | 494 kts | 115° |
| 2026-04-22 04:03 | 28.86193 | -109.46425 | 35083 ft | 494 kts | 115° |
| 2026-04-22 04:03 | 28.84856 | -109.42813 | 35478 ft | 493 kts | 115° |
| 2026-04-22 04:04 | 28.83524 | -109.39213 | 35887 ft | 492 kts | 115° |
| 2026-04-22 04:04 | 28.82195 | -109.35642 | 36229 ft | 492 kts | 115° |
| 2026-04-22 04:04 | 28.80860 | -109.32066 | 36558 ft | 492 kts | 115° |
| 2026-04-22 04:04 | 28.79525 | -109.28486 | 36888 ft | 492 kts | 115° |
| 2026-04-22 04:05 | 28.78182 | -109.24889 | 37046 ft | 493 kts | 116° |
| 2026-04-22 04:05 | 28.76839 | -109.21303 | 37074 ft | 492 kts | 116° |
| 2026-04-22 04:05 | 28.74151 | -109.14138 | 37083 ft | 491 kts | 116° |
| 2026-04-22 04:06 | 28.71478 | -109.06990 | 37090 ft | 490 kts | 115° |
| 2026-04-22 04:06 | 28.68799 | -108.99851 | 37093 ft | 490 kts | 116° |
| 2026-04-22 04:07 | 28.66116 | -108.92721 | 37103 ft | 490 kts | 116° |
| 2026-04-22 04:07 | 28.63430 | -108.85593 | 37105 ft | 490 kts | 116° |
| 2026-04-22 04:08 | 28.60755 | -108.78510 | 37116 ft | 490 kts | 116° |
| 2026-04-22 04:08 | 28.58060 | -108.71388 | 37134 ft | 490 kts | 116° |
| 2026-04-22 04:09 | 28.55358 | -108.64276 | 37141 ft | 489 kts | 116° |
| 2026-04-22 04:09 | 28.52652 | -108.57181 | 37151 ft | 489 kts | 116° |
| 2026-04-22 04:10 | 28.49954 | -108.50081 | 37131 ft | 489 kts | 116° |
| 2026-04-22 04:10 | 28.47254 | -108.42976 | 37156 ft | 490 kts | 116° |
| 2026-04-22 04:11 | 28.44544 | -108.35877 | 37160 ft | 489 kts | 116° |
| 2026-04-22 04:11 | 28.41828 | -108.28785 | 37164 ft | 489 kts | 116° |
| 2026-04-22 04:12 | 28.39111 | -108.21693 | 37164 ft | 489 kts | 116° |
| 2026-04-22 04:12 | 28.36390 | -108.14610 | 37170 ft | 489 kts | 116° |
| 2026-04-22 04:13 | 28.33666 | -108.07530 | 37168 ft | 489 kts | 116° |
| 2026-04-22 04:13 | 28.30949 | -108.00475 | 37153 ft | 489 kts | 116° |
| 2026-04-22 04:14 | 28.28205 | -107.93381 | 37145 ft | 490 kts | 116° |
| 2026-04-22 04:14 | 28.25461 | -107.86317 | 37165 ft | 490 kts | 116° |
| 2026-04-22 04:15 | 28.22731 | -107.79276 | 37180 ft | 491 kts | 116° |
| 2026-04-22 04:15 | 28.19968 | -107.72149 | 37178 ft | 491 kts | 116° |
| 2026-04-22 04:16 | 28.16299 | -107.62718 | 37186 ft | 492 kts | 116° |
| 2026-04-22 04:17 | 28.13068 | -107.54429 | 37181 ft | 493 kts | 116° |
| 2026-04-22 04:17 | 28.10759 | -107.48538 | 37175 ft | 493 kts | 116° |
| 2026-04-22 04:18 | 28.07522 | -107.40279 | 37168 ft | 493 kts | 116° |
| 2026-04-22 04:18 | 28.05193 | -107.34328 | 37180 ft | 493 kts | 116° |
| 2026-04-22 04:19 | 28.02408 | -107.27238 | 37169 ft | 494 kts | 116° |
| 2026-04-22 04:19 | 27.99626 | -107.20173 | 37176 ft | 494 kts | 117° |
| 2026-04-22 04:20 | 27.96825 | -107.13080 | 37153 ft | 494 kts | 117° |
| 2026-04-22 04:20 | 27.94007 | -107.05958 | 37153 ft | 494 kts | 117° |
| 2026-04-22 04:21 | 27.91218 | -106.98886 | 37140 ft | 495 kts | 116° |
| 2026-04-22 04:21 | 27.88401 | -106.91778 | 37109 ft | 496 kts | 117° |
| 2026-04-22 04:22 | 27.85548 | -106.84633 | 37096 ft | 496 kts | 117° |
| 2026-04-22 04:22 | 27.82568 | -106.77613 | 37114 ft | 496 kts | 119° |
| 2026-04-22 04:23 | 27.79505 | -106.70691 | 37096 ft | 496 kts | 120° |
| 2026-04-22 04:23 | 27.76423 | -106.63689 | 37099 ft | 497 kts | 119° |
| 2026-04-22 04:24 | 27.73393 | -106.56697 | 37086 ft | 498 kts | 119° |
| 2026-04-22 04:24 | 27.70342 | -106.49657 | 37091 ft | 498 kts | 119° |
| 2026-04-22 04:25 | 27.67298 | -106.42661 | 37075 ft | 498 kts | 119° |
| 2026-04-22 04:25 | 27.64224 | -106.35617 | 37082 ft | 498 kts | 119° |
| 2026-04-22 04:26 | 27.61176 | -106.28652 | 37066 ft | 499 kts | 119° |
| 2026-04-22 04:26 | 27.58095 | -106.21609 | 37068 ft | 499 kts | 119° |
| 2026-04-22 04:27 | 27.55030 | -106.14628 | 37067 ft | 498 kts | 119° |
| 2026-04-22 04:27 | 27.51942 | -106.07601 | 37065 ft | 498 kts | 119° |
| 2026-04-22 04:28 | 27.48877 | -106.00635 | 37071 ft | 498 kts | 119° |
| 2026-04-22 04:28 | 27.45792 | -105.93650 | 37072 ft | 499 kts | 119° |
| 2026-04-22 04:29 | 27.42688 | -105.86623 | 37038 ft | 500 kts | 119° |
| 2026-04-22 04:29 | 27.39584 | -105.79614 | 37054 ft | 501 kts | 119° |
| 2026-04-22 04:30 | 27.36489 | -105.72619 | 37042 ft | 501 kts | 119° |
| 2026-04-22 04:30 | 27.33362 | -105.65587 | 37047 ft | 501 kts | 119° |
| 2026-04-22 04:31 | 27.30248 | -105.58585 | 37041 ft | 502 kts | 119° |
| 2026-04-22 04:31 | 27.27124 | -105.51580 | 37033 ft | 502 kts | 119° |
| 2026-04-22 04:32 | 27.23984 | -105.44557 | 37013 ft | 503 kts | 119° |
| 2026-04-22 04:32 | 27.20846 | -105.37532 | 37016 ft | 503 kts | 119° |
| 2026-04-22 04:33 | 27.17714 | -105.30527 | 37000 ft | 503 kts | 119° |
| 2026-04-22 04:33 | 27.14576 | -105.23522 | 37009 ft | 503 kts | 119° |
| 2026-04-22 04:34 | 27.11424 | -105.16503 | 37009 ft | 503 kts | 119° |
| 2026-04-22 04:34 | 27.08265 | -105.09485 | 37012 ft | 502 kts | 119° |
| 2026-04-22 04:35 | 27.05117 | -105.02506 | 37007 ft | 502 kts | 119° |
| 2026-04-22 04:35 | 27.01968 | -104.95518 | 37010 ft | 502 kts | 119° |
| 2026-04-22 04:36 | 26.98820 | -104.88557 | 36990 ft | 501 kts | 119° |
| 2026-04-22 04:36 | 26.95650 | -104.81576 | 36993 ft | 501 kts | 119° |
| 2026-04-22 04:37 | 26.92495 | -104.74633 | 36999 ft | 500 kts | 119° |
| 2026-04-22 04:37 | 26.89340 | -104.67687 | 37000 ft | 500 kts | 119° |
| 2026-04-22 04:38 | 26.86185 | -104.60761 | 36993 ft | 500 kts | 119° |
| 2026-04-22 04:38 | 26.83023 | -104.53813 | 36990 ft | 500 kts | 119° |
| 2026-04-22 04:39 | 26.79881 | -104.46918 | 36975 ft | 499 kts | 119° |
| 2026-04-22 04:39 | 26.76696 | -104.39962 | 36975 ft | 499 kts | 120° |
| 2026-04-22 04:40 | 26.73610 | -104.33037 | 36941 ft | 501 kts | 113° |
| 2026-04-22 04:40 | 26.71158 | -104.25741 | 36952 ft | 501 kts | 112° |
| 2026-04-22 04:41 | 26.68722 | -104.18441 | 36943 ft | 501 kts | 112° |
| 2026-04-22 04:41 | 26.66277 | -104.11160 | 36947 ft | 502 kts | 112° |
| 2026-04-22 04:42 | 26.63815 | -104.03879 | 36931 ft | 502 kts | 112° |
| 2026-04-22 04:42 | 26.61345 | -103.96572 | 36929 ft | 502 kts | 112° |
| 2026-04-22 04:43 | 26.58886 | -103.89279 | 36924 ft | 502 kts | 112° |
| 2026-04-22 04:43 | 26.56400 | -103.81951 | 36932 ft | 502 kts | 112° |
| 2026-04-22 04:44 | 26.53914 | -103.74668 | 36916 ft | 502 kts | 112° |
| 2026-04-22 04:44 | 26.51443 | -103.67404 | 36923 ft | 502 kts | 112° |
| 2026-04-22 04:45 | 26.48963 | -103.60103 | 36902 ft | 502 kts | 112° |
| 2026-04-22 04:45 | 26.46485 | -103.52836 | 36916 ft | 502 kts | 112° |
| 2026-04-22 04:46 | 26.43984 | -103.45516 | 36935 ft | 502 kts | 112° |
| 2026-04-22 04:46 | 26.41498 | -103.38268 | 36937 ft | 502 kts | 112° |
| 2026-04-22 04:47 | 26.38995 | -103.30994 | 36953 ft | 501 kts | 112° |
| 2026-04-22 04:47 | 26.36499 | -103.23745 | 36942 ft | 501 kts | 112° |
| 2026-04-22 04:48 | 26.34001 | -103.16501 | 36962 ft | 501 kts | 112° |
| 2026-04-22 04:48 | 26.31502 | -103.09266 | 36956 ft | 501 kts | 113° |
| 2026-04-22 04:49 | 26.28991 | -103.02018 | 36976 ft | 501 kts | 113° |
| 2026-04-22 04:49 | 26.26472 | -102.94759 | 36944 ft | 501 kts | 113° |
| 2026-04-22 04:50 | 26.23958 | -102.87526 | 36969 ft | 500 kts | 113° |
| 2026-04-22 04:50 | 26.21447 | -102.80322 | 36974 ft | 499 kts | 113° |
| 2026-04-22 04:51 | 26.18935 | -102.73095 | 36999 ft | 500 kts | 114° |
| 2026-04-22 04:51 | 26.16424 | -102.65879 | 36974 ft | 501 kts | 114° |
| 2026-04-22 04:52 | 26.13891 | -102.58634 | 36990 ft | 502 kts | 114° |
| 2026-04-22 04:52 | 26.11356 | -102.51426 | 36988 ft | 502 kts | 114° |
| 2026-04-22 04:53 | 26.08804 | -102.44166 | 37012 ft | 502 kts | 114° |
| 2026-04-22 04:53 | 26.06260 | -102.36973 | 36989 ft | 502 kts | 114° |
| 2026-04-22 04:54 | 26.03711 | -102.29749 | 37017 ft | 503 kts | 114° |
| 2026-04-22 04:54 | 26.01160 | -102.22487 | 36982 ft | 504 kts | 114° |
| 2026-04-22 04:55 | 25.98617 | -102.15212 | 36982 ft | 505 kts | 114° |
| 2026-04-22 04:55 | 25.97329 | -102.11558 | 36758 ft | 508 kts | 114° |
| 2026-04-22 04:55 | 25.96026 | -102.07914 | 36502 ft | 507 kts | 115° |
| 2026-04-22 04:55 | 25.94721 | -102.04283 | 36255 ft | 505 kts | 114° |
| 2026-04-22 04:56 | 25.93420 | -102.00661 | 36038 ft | 504 kts | 115° |
| 2026-04-22 04:56 | 25.92129 | -101.97049 | 35793 ft | 502 kts | 114° |
| 2026-04-22 04:56 | 25.90845 | -101.93445 | 35551 ft | 501 kts | 114° |
| 2026-04-22 04:56 | 25.89567 | -101.89852 | 35310 ft | 499 kts | 114° |
| 2026-04-22 04:57 | 25.88292 | -101.86274 | 35085 ft | 497 kts | 114° |
| 2026-04-22 04:57 | 25.87024 | -101.82711 | 34843 ft | 496 kts | 116° |
| 2026-04-22 04:57 | 25.85759 | -101.79160 | 34678 ft | 494 kts | 112° |
| 2026-04-22 04:57 | 25.84483 | -101.75624 | 34471 ft | 493 kts | 114° |
| 2026-04-22 04:58 | 25.83217 | -101.72093 | 34260 ft | 491 kts | 114° |
| 2026-04-22 04:58 | 25.81958 | -101.68574 | 34027 ft | 490 kts | 114° |
| 2026-04-22 04:58 | 25.80706 | -101.65069 | 33761 ft | 487 kts | 114° |
| 2026-04-22 04:58 | 25.79463 | -101.61584 | 33496 ft | 485 kts | 114° |
| 2026-04-22 04:59 | 25.78235 | -101.58157 | 33225 ft | 483 kts | 114° |
| 2026-04-22 04:59 | 25.76976 | -101.54663 | 32961 ft | 480 kts | 114° |
| 2026-04-22 04:59 | 25.75752 | -101.51275 | 32710 ft | 478 kts | 114° |
| 2026-04-22 04:59 | 25.74502 | -101.47815 | 32454 ft | 476 kts | 114° |
| 2026-04-22 05:00 | 25.73274 | -101.44414 | 32214 ft | 474 kts | 114° |
| 2026-04-22 05:00 | 25.72067 | -101.41067 | 31972 ft | 472 kts | 114° |
| 2026-04-22 05:00 | 25.70851 | -101.37696 | 31724 ft | 470 kts | 114° |
| 2026-04-22 05:00 | 25.69639 | -101.34340 | 31476 ft | 468 kts | 114° |
| 2026-04-22 05:01 | 25.68432 | -101.30996 | 31247 ft | 466 kts | 114° |
| 2026-04-22 05:01 | 25.67233 | -101.27674 | 31009 ft | 463 kts | 114° |
| 2026-04-22 05:01 | 25.66035 | -101.24363 | 30804 ft | 461 kts | 114° |
| 2026-04-22 05:01 | 25.64838 | -101.21074 | 30586 ft | 459 kts | 114° |
| 2026-04-22 05:02 | 25.63647 | -101.17805 | 30369 ft | 455 kts | 114° |
| 2026-04-22 05:02 | 25.62464 | -101.14557 | 29883 ft | 455 kts | 114° |
| 2026-04-22 05:02 | 25.61283 | -101.11309 | 29437 ft | 453 kts | 114° |
| 2026-04-22 05:02 | 25.60108 | -101.08077 | 29004 ft | 451 kts | 114° |
| 2026-04-22 05:03 | 25.58935 | -101.04850 | 28568 ft | 450 kts | 114° |
| 2026-04-22 05:03 | 25.57765 | -101.01637 | 28126 ft | 449 kts | 114° |
| 2026-04-22 05:03 | 25.56595 | -100.98437 | 27666 ft | 447 kts | 114° |
| 2026-04-22 05:03 | 25.55477 | -100.95234 | 27262 ft | 446 kts | 109° |
| 2026-04-22 05:04 | 25.54787 | -100.91885 | 26848 ft | 446 kts | 97° |
| 2026-04-22 05:04 | 25.54631 | -100.89625 | 26569 ft | 445 kts | 90° |
| 2026-04-22 05:04 | 25.54670 | -100.85098 | 25991 ft | 444 kts | 88° |
| 2026-04-22 05:04 | 25.54704 | -100.81708 | 25541 ft | 435 kts | 89° |
| 2026-04-22 05:05 | 25.54730 | -100.78404 | 25088 ft | 423 kts | 89° |
| 2026-04-22 05:05 | 25.54754 | -100.75190 | 24648 ft | 412 kts | 89° |
| 2026-04-22 05:05 | 25.54776 | -100.72051 | 24206 ft | 402 kts | 89° |
| 2026-04-22 05:05 | 25.54789 | -100.69975 | 23909 ft | 396 kts | 89° |
| 2026-04-22 05:06 | 25.54809 | -100.65975 | 23295 ft | 391 kts | 89° |
| 2026-04-22 05:06 | 25.54819 | -100.63941 | 23001 ft | 392 kts | 89° |
| 2026-04-22 05:06 | 25.54835 | -100.60928 | 22566 ft | 391 kts | 89° |
| 2026-04-22 05:06 | 25.54853 | -100.57960 | 22137 ft | 390 kts | 89° |
| 2026-04-22 05:07 | 25.54873 | -100.54961 | 21712 ft | 389 kts | 89° |
| 2026-04-22 05:07 | 25.54892 | -100.51968 | 21287 ft | 388 kts | 89° |
| 2026-04-22 05:07 | 25.54908 | -100.48982 | 20865 ft | 387 kts | 89° |
| 2026-04-22 05:07 | 25.54922 | -100.46013 | 20455 ft | 385 kts | 90° |
| 2026-04-22 05:08 | 25.54935 | -100.43047 | 20030 ft | 385 kts | 90° |
| 2026-04-22 05:08 | 25.54949 | -100.40090 | 19622 ft | 383 kts | 90° |
| 2026-04-22 05:08 | 25.54963 | -100.37148 | 19201 ft | 383 kts | 90° |
| 2026-04-22 05:08 | 25.54979 | -100.34199 | 18794 ft | 382 kts | 90° |
| 2026-04-22 05:09 | 25.54996 | -100.31255 | 18439 ft | 379 kts | 90° |
| 2026-04-22 05:09 | 25.55156 | -100.28381 | 18134 ft | 371 kts | 80° |
| 2026-04-22 05:09 | 25.55898 | -100.25687 | 17910 ft | 361 kts | 63° |
| 2026-04-22 05:09 | 25.57187 | -100.23301 | 17902 ft | 362 kts | 50° |
| 2026-04-22 05:10 | 25.58926 | -100.21343 | 17647 ft | 353 kts | 33° |
| 2026-04-22 05:10 | 25.60973 | -100.19849 | 17448 ft | 352 kts | 27° |
| 2026-04-22 05:10 | 25.63046 | -100.18420 | 17237 ft | 350 kts | 27° |
| 2026-04-22 05:10 | 25.65107 | -100.16994 | 17032 ft | 349 kts | 27° |
| 2026-04-22 05:11 | 25.67157 | -100.15569 | 16825 ft | 347 kts | 27° |
| 2026-04-22 05:11 | 25.69175 | -100.14163 | 16626 ft | 346 kts | 27° |
| 2026-04-22 05:11 | 25.71232 | -100.12726 | 16419 ft | 345 kts | 27° |
| 2026-04-22 05:11 | 25.73236 | -100.11324 | 16216 ft | 344 kts | 27° |
| 2026-04-22 05:12 | 25.75255 | -100.09906 | 16016 ft | 343 kts | 27° |
| 2026-04-22 05:12 | 25.77265 | -100.08493 | 15819 ft | 341 kts | 27° |
| 2026-04-22 05:12 | 25.79278 | -100.07081 | 15621 ft | 340 kts | 27° |
| 2026-04-22 05:12 | 25.81276 | -100.05682 | 15424 ft | 339 kts | 27° |
| 2026-04-22 05:13 | 25.83266 | -100.04289 | 15226 ft | 338 kts | 27° |
| 2026-04-22 05:13 | 25.85255 | -100.02899 | 15031 ft | 337 kts | 27° |
| 2026-04-22 05:13 | 25.87248 | -100.01510 | 14464 ft | 344 kts | 27° |
| 2026-04-22 05:13 | 25.89293 | -100.00166 | 14223 ft | 333 kts | 18° |
| 2026-04-22 05:14 | 25.91453 | -99.99713 | 14103 ft | 304 kts | 348° |
| 2026-04-22 05:14 | 25.93325 | -100.00370 | 13961 ft | 268 kts | 322° |
| 2026-04-22 05:14 | 25.94620 | -100.01742 | 13696 ft | 253 kts | 300° |
| 2026-04-22 05:14 | 25.95563 | -100.03377 | 13353 ft | 251 kts | 299° |
| 2026-04-22 05:15 | 25.96492 | -100.05013 | 12995 ft | 250 kts | 299° |
| 2026-04-22 05:15 | 25.97408 | -100.06630 | 12632 ft | 243 kts | 299° |
| 2026-04-22 05:15 | 25.98296 | -100.08196 | 12166 ft | 240 kts | 300° |
| 2026-04-22 05:15 | 25.99201 | -100.09793 | 11529 ft | 247 kts | 300° |
| 2026-04-22 05:16 | 26.00121 | -100.11412 | 10976 ft | 248 kts | 301° |
| 2026-04-22 05:16 | 26.01043 | -100.13034 | 10475 ft | 248 kts | 301° |
| 2026-04-22 05:16 | 26.01961 | -100.14650 | 9984 ft | 246 kts | 302° |
| 2026-04-22 05:16 | 26.02872 | -100.16251 | 9506 ft | 244 kts | 302° |
| 2026-04-22 05:17 | 26.03782 | -100.17846 | 9084 ft | 244 kts | 301° |
| 2026-04-22 05:17 | 26.04616 | -100.19442 | 8997 ft | 233 kts | 289° |
| 2026-04-22 05:17 | 26.04734 | -100.21142 | 8947 ft | 222 kts | 256° |
| 2026-04-22 05:17 | 26.03988 | -100.22616 | 8651 ft | 225 kts | 224° |
| 2026-04-22 05:18 | 26.01297 | -100.24484 | 8043 ft | 226 kts | 211° |
| 2026-04-22 05:18 | 25.99953 | -100.25372 | 7696 ft | 223 kts | 210° |
| 2026-04-22 05:18 | 25.98637 | -100.26248 | 7294 ft | 216 kts | 208° |
| 2026-04-22 05:19 | 25.97377 | -100.27092 | 6946 ft | 206 kts | 209° |
| 2026-04-22 05:19 | 25.96178 | -100.27900 | 6632 ft | 198 kts | 207° |
| 2026-04-22 05:19 | 25.95004 | -100.28687 | 6323 ft | 197 kts | 208° |
| 2026-04-22 05:19 | 25.93827 | -100.29474 | 6011 ft | 196 kts | 206° |
| 2026-04-22 05:20 | 25.92655 | -100.30260 | 5701 ft | 197 kts | 206° |
| 2026-04-22 05:20 | 25.91485 | -100.31043 | 5576 ft | 196 kts | 206° |
| 2026-04-22 05:20 | 25.90211 | -100.31443 | 5462 ft | 189 kts | 172° |
| 2026-04-22 05:20 | 25.89089 | -100.30955 | 5334 ft | 165 kts | 138° |
| 2026-04-22 05:21 | 25.88409 | -100.29933 | 5129 ft | 167 kts | 120° |
| 2026-04-22 05:21 | 25.87805 | -100.28823 | 4873 ft | 168 kts | 121° |
| 2026-04-22 05:21 | 25.87198 | -100.27716 | 4628 ft | 168 kts | 121° |
| 2026-04-22 05:21 | 25.86587 | -100.26606 | 4409 ft | 169 kts | 121° |
| 2026-04-22 05:22 | 25.85982 | -100.25508 | 4182 ft | 169 kts | 121° |
| 2026-04-22 05:22 | 25.85367 | -100.24391 | 3944 ft | 170 kts | 121° |
| 2026-04-22 05:22 | 25.84754 | -100.23274 | 3717 ft | 170 kts | 121° |
| 2026-04-22 05:22 | 25.84149 | -100.22170 | 3489 ft | 160 kts | 121° |
| 2026-04-22 05:23 | 25.83596 | -100.21161 | 3285 ft | 144 kts | 121° |
| 2026-04-22 05:23 | 25.83086 | -100.20231 | 3093 ft | 137 kts | 121° |
| 2026-04-22 05:23 | 25.82609 | -100.19354 | 2915 ft | 133 kts | 121° |
| 2026-04-22 05:23 | 25.82132 | -100.18487 | 2758 ft | 131 kts | 122° |
| 2026-04-22 05:24 | 25.81647 | -100.17641 | 2566 ft | 129 kts | 122° |
| 2026-04-22 05:24 | 25.81170 | -100.16786 | 2357 ft | 130 kts | 120° |
| 2026-04-22 05:24 | 25.80717 | -100.15911 | 2168 ft | 132 kts | 120° |
| 2026-04-22 05:24 | 25.80246 | -100.15034 | 1981 ft | 133 kts | 122° |
| 2026-04-22 05:25 | 25.79766 | -100.14152 | 1824 ft | 134 kts | 123° |
| 2026-04-22 05:25 | 25.79283 | -100.13268 | 1696 ft | 135 kts | 123° |
| 2026-04-22 05:25 | 25.78791 | -100.12382 | 1481 ft | 134 kts | 122° |
| 2026-04-22 05:25 | 25.78294 | -100.11504 | 1356 ft | 134 kts | 120° |
| 2026-04-22 05:26 | 25.77840 | -100.10671 | 1331 ft | 107 kts | 121° |
| 2026-04-22 05:26 | 25.77530 | -100.10102 | 1331 ft | 69 kts | 121° |
| 2026-04-22 05:26 | 25.77336 | -100.09732 | 1331 ft | 32 kts | 120° |
| 2026-04-22 05:26 | 25.77268 | -100.09679 | 1331 ft | 5 kts | 215° |
| 2026-04-22 05:27 | 25.77232 | -100.09709 | 1331 ft | 8 kts | 218° |
| 2026-04-22 05:27 | 25.77179 | -100.09753 | 1331 ft | 11 kts | 216° |
| 2026-04-22 05:27 | 25.77154 | -100.09830 | 1331 ft | 13 kts | 295° |
| 2026-04-22 05:27 | 25.77196 | -100.09904 | 1331 ft | 15 kts | 301° |
| 2026-04-22 05:28 | 25.77236 | -100.09978 | 1331 ft | 17 kts | 300° |
| 2026-04-22 05:28 | 25.77253 | -100.10008 | 1331 ft | 18 kts | 301° |
| 2026-04-22 05:29 | 25.77278 | -100.10054 | 1331 ft | 19 kts | 301° |
| 2026-04-22 05:29 | 25.77354 | -100.10191 | 1331 ft | 23 kts | 301° |
| 2026-04-22 05:29 | 25.77441 | -100.10351 | 1331 ft | 26 kts | 301° |
| 2026-04-22 05:29 | 25.77485 | -100.10433 | 1331 ft | 27 kts | 301° |
| 2026-04-22 05:30 | 25.77487 | -100.10435 | 1331 ft | 27 kts | 301° |
| 2026-04-22 05:30 | 25.77594 | -100.10629 | 1331 ft | 26 kts | 300° |
| 2026-04-22 05:30 | 25.77675 | -100.10779 | 1331 ft | 22 kts | 301° |
| 2026-04-22 05:30 | 25.77760 | -100.10939 | 1331 ft | 26 kts | 300° |
| 2026-04-22 05:31 | 25.77854 | -100.11119 | 1331 ft | 27 kts | 300° |
| 2026-04-22 05:31 | 25.77918 | -100.11209 | 1331 ft | 3 kts | 304° |
| 2026-04-22 05:31 | 25.77923 | -100.11218 | 1333 ft | 3 kts | 301° |
| 2026-04-22 05:31 | 25.77914 | -100.11240 | 1331 ft | 5 kts | 216° |
| 2026-04-22 05:32 | 25.77877 | -100.11267 | 1331 ft | 8 kts | 211° |
| 2026-04-22 05:32 | 25.77850 | -100.11285 | 1331 ft | 1 kts | 211° |
| 2026-04-22 05:32 | 25.77849 | -100.11286 | 1331 ft | 0 kts | 211° |